^^
Datos históricos de la estación: Murcia-Puente Tocinos
Diario Informe para Enero 8, 2019 Unidades:  Métrico    Ingés   Ambas
Diario Semanal Mensual Anual
  Máxima: Mínima: Promedio:
Temperatura: 19.7 °C 8.1 °C 13 °C
Punto de rocio: 10.1 °C 5.7 °C 7.7 °C
Humedad: 90% 41% 72%
Velocidad viento: 16.4km/h 2.2km/h 7km/h
Racha viento: 33.8km/h - -
Viento- - SSO
Presión: 1024.1 hPa 1020.6 hPa -
Precipitación: 0.0 mm    
 
 
Tabla de datos para Enero 8, 2019
Hora Temperatura Punto de rocio Presión Viento Velocidad viento Racha viento Humedad Intensidad lluvia(por hora) Nubes
00:04 10.4 °C 8.2 °C 1023.7 hPa SSE 6.9 km/h 9.7 km/h 86% 0.0 mm
00:09 10.3 °C 8.2 °C 1023.7 hPa Sur 6.9 km/h 9.7 km/h 87% 0.0 mm
00:14 10.2 °C 8.3 °C 1023.7 hPa Sur 6.3 km/h 8 km/h 88% 0.0 mm
00:19 10.2 °C 8.3 °C 1023.7 hPa SSO 5.8 km/h 8 km/h 88% 0.0 mm
00:24 10.2 °C 8.3 °C 1023.8 hPa SSO 5.3 km/h 8.7 km/h 88% 0.0 mm
00:29 10.3 °C 8.4 °C 1023.8 hPa SO 5 km/h 9.7 km/h 88% 0.0 mm
00:34 10.3 °C 8.4 °C 1023.8 hPa SO 5 km/h 9.3 km/h 88% 0.0 mm
00:39 10.3 °C 8.4 °C 1023.8 hPa SO 5 km/h 9.7 km/h 88% 0.0 mm
00:44 10.3 °C 8.4 °C 1023.6 hPa SO 4.4 km/h 8 km/h 88% 0.0 mm
00:49 10.3 °C 8.4 °C 1023.6 hPa SSO 3.9 km/h 8 km/h 88% 0.0 mm
00:54 10.2 °C 8.3 °C 1023.6 hPa Sur 4.3 km/h 7.6 km/h 88% 0.0 mm
00:59 10.2 °C 8.3 °C 1023.5 hPa Sur 4.7 km/h 8 km/h 88% 0.0 mm
01:04 10.2 °C 8.2 °C 1023.5 hPa SSO 4.8 km/h 8 km/h 88% 0.0 mm
01:09 10.1 °C 8.2 °C 1023.5 hPa Sur 5 km/h 8 km/h 88% 0.0 mm
01:14 10 °C 8.1 °C 1023.4 hPa SSE 4.4 km/h 8 km/h 87.8% 0.0 mm
01:19 9.8 °C 7.8 °C 1023.4 hPa SE 3.9 km/h 7.6 km/h 87% 0.0 mm
01:24 9.7 °C 7.6 °C 1023.4 hPa SSE 4.3 km/h 8 km/h 87.2% 0.0 mm
01:29 9.4 °C 7.5 °C 1023.4 hPa Sur 4.7 km/h 8 km/h 88% 0.0 mm
01:34 9.3 °C 7.6 °C 1023.4 hPa Sur 4.8 km/h 8 km/h 88.8% 0.0 mm
01:39 9.3 °C 7.6 °C 1023.4 hPa Sur 5 km/h 8 km/h 89% 0.0 mm
01:44 9.3 °C 7.6 °C 1023.4 hPa Sur 4.8 km/h 8 km/h 89% 0.0 mm
01:49 9.3 °C 7.6 °C 1023.4 hPa Sur 4.7 km/h 8 km/h 89% 0.0 mm
01:54 9.3 °C 7.6 °C 1023.4 hPa Sur 3.8 km/h 7.6 km/h 89.5% 0.0 mm
01:59 9.3 °C 7.6 °C 1023.3 hPa SSE 3.2 km/h 9.3 km/h 89.4% 0.0 mm
02:04 9.2 °C 7.5 °C 1023.3 hPa SSE 5.1 km/h 9.7 km/h 89% 0.0 mm
02:09 9.2 °C 7.6 °C 1023.3 hPa Sur 6.5 km/h 10 km/h 89.7% 0.0 mm
02:14 9.3 °C 7.7 °C 1023.3 hPa SSO 6.7 km/h 13 km/h 90% 0.0 mm
02:19 9.3 °C 7.6 °C 1023.3 hPa Sur 6.9 km/h 13 km/h 89.5% 0.0 mm
02:24 9.3 °C 7.6 °C 1023.3 hPa Sur 7.3 km/h 11.9 km/h 89% 0.0 mm
02:29 9.3 °C 7.6 °C 1023.2 hPa Sur 7.6 km/h 11.3 km/h 89% 0.0 mm
02:34 9.3 °C 7.6 °C 1023.2 hPa SSO 7 km/h 11.3 km/h 89% 0.0 mm
02:39 9.3 °C 7.6 °C 1023.3 hPa SSO 6.5 km/h 9.7 km/h 89% 0.0 mm
02:44 9.3 °C 7.6 °C 1023.3 hPa SO 6.5 km/h 11.1 km/h 89% 0.0 mm
02:49 9.4 °C 7.7 °C 1023.3 hPa SO 6.5 km/h 11.3 km/h 89% 0.0 mm
02:54 9.4 °C 7.7 °C 1023.4 hPa SSO 6.5 km/h 9.7 km/h 89% 0.0 mm
02:59 9.4 °C 7.6 °C 1023.4 hPa Sur 6.5 km/h 10 km/h 88.3% 0.0 mm
03:04 9.3 °C 7.4 °C 1023.4 hPa Sur 6.7 km/h 13 km/h 88% 0.0 mm
03:09 9.2 °C 7.3 °C 1023.4 hPa SO 6.9 km/h 12.9 km/h 88% 0.0 mm
03:14 9.2 °C 7.3 °C 1023.3 hPa SSO 7.8 km/h 13 km/h 88% 0.0 mm
03:19 9.2 °C 7.3 °C 1023.3 hPa SSO 8.4 km/h 12.9 km/h 88% 0.0 mm
03:24 9.1 °C 7.2 °C 1023.3 hPa SO 8.4 km/h 13 km/h 88.1% 0.0 mm
03:29 9.1 °C 7.4 °C 1023.2 hPa SO 8.4 km/h 12.9 km/h 89% 0.0 mm
03:34 9.1 °C 7.4 °C 1023.2 hPa SO 7.9 km/h 11.3 km/h 89% 0.0 mm
03:39 9.1 °C 7.4 °C 1023.2 hPa SO 7.6 km/h 11.3 km/h 89% 0.0 mm
03:44 9.1 °C 7.4 °C 1023.1 hPa SO 6.1 km/h 8 km/h 89% 0.0 mm
03:49 9.1 °C 7.4 °C 1023.1 hPa SO 5 km/h 8 km/h 89% 0.0 mm
03:54 9.1 °C 7.4 °C 1023.1 hPa OSO 4.4 km/h 8 km/h 89% 0.0 mm
03:59 9.1 °C 7.4 °C 1023.1 hPa OSO 3.9 km/h 8 km/h 89% 0.0 mm
04:04 9.1 °C 7.4 °C 1023.1 hPa SO 3.3 km/h 7.4 km/h 89% 0.0 mm
04:09 9 °C 7.2 °C 1023.1 hPa OSO 2.9 km/h 8 km/h 89% 0.0 mm
04:14 8.9 °C 7.2 °C 1023.0 hPa SO 3.9 km/h 9.5 km/h 89% 0.0 mm
04:19 8.8 °C 7.1 °C 1023.0 hPa OSO 4.7 km/h 9.7 km/h 89% 0.0 mm
04:24 8.7 °C 7 °C 1023.0 hPa OSO 5.3 km/h 9.7 km/h 89% 0.0 mm
04:29 8.7 °C 7 °C 1022.9 hPa SO 5.8 km/h 8.4 km/h 89% 0.0 mm
04:34 8.7 °C 7 °C 1022.9 hPa SO 5.3 km/h 8 km/h 89% 0.0 mm
04:39 8.7 °C 7.1 °C 1022.9 hPa SO 5 km/h 8 km/h 89.6% 0.0 mm
04:44 8.7 °C 7.2 °C 1022.9 hPa SO 4.8 km/h 8 km/h 90% 0.0 mm
04:49 8.8 °C 7.1 °C 1022.9 hPa SO 4.7 km/h 8 km/h 89.2% 0.0 mm
04:54 8.8 °C 7.1 °C 1022.9 hPa SO 4.2 km/h 8 km/h 89% 0.0 mm
04:59 8.7 °C 7 °C 1022.8 hPa SO 3.9 km/h 8.4 km/h 89% 0.0 mm
05:04 8.7 °C 7 °C 1022.8 hPa SO 4.5 km/h 9.5 km/h 89% 0.0 mm
05:09 8.7 °C 7 °C 1022.8 hPa SO 5 km/h 9.7 km/h 89% 0.0 mm
05:14 8.6 °C 6.9 °C 1022.8 hPa SO 4 km/h 8 km/h 89% 0.0 mm
05:19 8.6 °C 6.9 °C 1022.8 hPa SO 3.2 km/h 7.4 km/h 89% 0.0 mm
05:24 8.7 °C 7 °C 1022.8 hPa SO 3.2 km/h 8 km/h 89% 0.0 mm
05:29 8.7 °C 7 °C 1022.8 hPa SO 3.2 km/h 8 km/h 89% 0.0 mm
05:34 8.7 °C 7 °C 1022.8 hPa SO 3.6 km/h 9.3 km/h 89% 0.0 mm
05:39 8.7 °C 7 °C 1022.8 hPa SO 3.9 km/h 9.7 km/h 89% 0.0 mm
05:44 8.7 °C 6.9 °C 1022.8 hPa SO 5.3 km/h 9.7 km/h 88.3% 0.0 mm
05:49 8.8 °C 6.9 °C 1022.8 hPa Sur 6.5 km/h 9.3 km/h 88% 0.0 mm
05:54 8.8 °C 6.8 °C 1022.8 hPa Sur 6.1 km/h 9.7 km/h 87.3% 0.0 mm
05:59 8.8 °C 6.7 °C 1022.8 hPa Sur 5.8 km/h 8 km/h 87% 0.0 mm
06:04 8.7 °C 6.7 °C 1022.8 hPa Sur 4.1 km/h 10.3 km/h 87% 0.0 mm
06:09 8.6 °C 6.6 °C 1022.8 hPa Sur 2.9 km/h 11.3 km/h 87% 0.0 mm
06:14 8.5 °C 6.5 °C 1022.7 hPa SSO 4.9 km/h 9.7 km/h 87% 0.0 mm
06:19 8.4 °C 6.4 °C 1022.7 hPa SSO 6.5 km/h 11.1 km/h 87% 0.0 mm
06:24 8.4 °C 6.3 °C 1022.7 hPa SSO 6.5 km/h 11.3 km/h 87% 0.0 mm
06:29 8.5 °C 6.4 °C 1022.7 hPa SSO 6.5 km/h 11.3 km/h 87% 0.0 mm
06:34 8.5 °C 6.5 °C 1022.7 hPa SSO 6.5 km/h 13 km/h 87% 0.0 mm
06:39 8.6 °C 6.6 °C 1022.7 hPa SO 6.5 km/h 13 km/h 86.9% 0.0 mm
06:44 8.7 °C 6.5 °C 1022.7 hPa SO 7.5 km/h 12.9 km/h 86% 0.0 mm
06:49 8.7 °C 6.5 °C 1022.7 hPa OSO 8.4 km/h 9.7 km/h 85.9% 0.0 mm
06:54 8.6 °C 6.2 °C 1022.8 hPa SO 6.5 km/h 9.7 km/h 85.4% 0.0 mm
06:59 8.4 °C 6.2 °C 1022.8 hPa Oeste 5 km/h 9.7 km/h 86% 0.0 mm
07:04 8.3 °C 6.1 °C 1022.8 hPa OSO 4.8 km/h 8 km/h 86% 0.0 mm
07:09 8.2 °C 6.1 °C 1022.8 hPa Oeste 4.7 km/h 8 km/h 87% 0.0 mm
07:14 8.1 °C 6.1 °C 1022.8 hPa OSO 4.8 km/h 9.3 km/h 87% 0.0 mm
07:19 8.1 °C 6.1 °C 1022.8 hPa OSO 5 km/h 10.3 km/h 87.5% 0.0 mm
07:24 8.1 °C 6.2 °C 1022.8 hPa SO 5.8 km/h 13 km/h 88% 0.0 mm
07:29 8.2 °C 6.3 °C 1022.8 hPa OSO 6.5 km/h 12.9 km/h 87.8% 0.0 mm
07:34 8.3 °C 6.2 °C 1022.8 hPa OSO 5 km/h 7.4 km/h 87% 0.0 mm
07:39 8.3 °C 6.3 °C 1023.0 hPa OSO 3.9 km/h 8 km/h 87% 0.0 mm
07:44 8.4 °C 6.3 °C 1023.0 hPa OSO 3 km/h 3.2 km/h 86.7% 0.0 mm
07:49 8.3 °C 6.2 °C 1023.0 hPa OSO 2.2 km/h 4.7 km/h 86.3% 0.0 mm
07:54 8.4 °C 6.3 °C 1023.1 hPa OSO 2.2 km/h 6.9 km/h 87% 0.0 mm
07:59 8.5 °C 6.4 °C 1023.1 hPa SSO 2.2 km/h 8 km/h 87% 0.0 mm
08:04 8.7 °C 6.6 °C 1023.1 hPa SSO 3.8 km/h 11.1 km/h 86.5% 0.0 mm
08:09 9 °C 6.7 °C 1023.2 hPa SSO 5 km/h 11.3 km/h 85.3% 0.0 mm
08:14 9.2 °C 6.6 °C 1023.2 hPa SSO 6.1 km/h 9.7 km/h 84% 0.0 mm
08:19 9.3 °C 6.6 °C 1023.2 hPa SSO 6.9 km/h 9.7 km/h 83.1% 0.0 mm
08:24 9.3 °C 6.5 °C 1023.2 hPa SSO 6.9 km/h 10 km/h 83% 0.0 mm
08:29 9.2 °C 6.4 °C 1023.2 hPa Sur 6.9 km/h 11.1 km/h 83% 0.0 mm
08:34 9.1 °C 6.4 °C 1023.2 hPa Sur 6.9 km/h 13 km/h 83% 0.0 mm
08:39 9 °C 6.2 °C 1023.4 hPa Sur 6.9 km/h 12.9 km/h 83% 0.0 mm
08:44 8.9 °C 6.2 °C 1023.4 hPa SSE 7.8 km/h 11.3 km/h 83.2% 0.0 mm
08:49 8.9 °C 6.3 °C 1023.4 hPa Sur 8.4 km/h 11.3 km/h 84% 0.0 mm
08:54 8.9 °C 6.3 °C 1023.4 hPa Sur 7.6 km/h 10 km/h 84% 0.0 mm
08:59 8.9 °C 6.4 °C 1023.4 hPa Sur 6.9 km/h 11.1 km/h 84% 0.0 mm
09:04 9.1 °C 6.5 °C 1023.4 hPa Sur 7.3 km/h 14.8 km/h 83.8% 0.0 mm
09:09 9.3 °C 6.5 °C 1023.5 hPa SSO 7.6 km/h 14.5 km/h 83% 0.0 mm
09:14 9.6 °C 6.7 °C 1023.5 hPa SSO 8.2 km/h 14.8 km/h 82.3% 0.0 mm
09:19 9.8 °C 6.7 °C 1023.5 hPa SSO 8.7 km/h 14.8 km/h 81% 0.0 mm
09:24 10.2 °C 6.8 °C 1023.6 hPa SSO 8.5 km/h 14.8 km/h 79.8% 0.0 mm
09:29 10.4 °C 6.9 °C 1023.6 hPa SO 8.4 km/h 14.8 km/h 78.7% 0.0 mm
09:34 10.6 °C 6.9 °C 1023.6 hPa SO 8.4 km/h 11.9 km/h 77.9% 0.0 mm
09:39 10.8 °C 6.9 °C 1023.7 hPa SO 8.4 km/h 13.7 km/h 77% 0.0 mm
09:44 11 °C 6.9 °C 1023.7 hPa SO 7.9 km/h 14.5 km/h 76.2% 0.0 mm
09:49 11.2 °C 7 °C 1023.7 hPa SO 7.6 km/h 15.6 km/h 75.2% 0.0 mm
09:54 11.3 °C 7 °C 1023.8 hPa SSO 8 km/h 16.1 km/h 74.5% 0.0 mm
09:59 11.5 °C 7 °C 1023.8 hPa SSO 8.4 km/h 13.7 km/h 73.8% 0.0 mm
10:04 11.7 °C 7 °C 1023.8 hPa SO 8.4 km/h 14.5 km/h 73% 0.0 mm
10:09 11.8 °C 7.1 °C 1023.8 hPa SO 8.4 km/h 12.9 km/h 73% 0.0 mm
10:14 11.9 °C 7 °C 1023.8 hPa SO 8.5 km/h 13.7 km/h 72.2% 0.0 mm
10:19 12.1 °C 7.2 °C 1023.8 hPa SSO 8.7 km/h 14.8 km/h 72% 0.0 mm
10:24 12.2 °C 7.2 °C 1023.8 hPa SSO 8.5 km/h 15.6 km/h 71.5% 0.0 mm
10:29 12.3 °C 7.3 °C 1023.8 hPa SSO 8.4 km/h 16.1 km/h 71.4% 0.0 mm
10:34 12.6 °C 7.4 °C 1023.8 hPa SSO 8.4 km/h 17.2 km/h 70.6% 0.0 mm
10:39 12.6 °C 7.3 °C 1024.0 hPa SSO 8.4 km/h 17.7 km/h 70% 0.0 mm
10:44 12.7 °C 7.5 °C 1024.0 hPa SSO 9.8 km/h 17.7 km/h 71% 0.0 mm
10:49 12.8 °C 7.5 °C 1024.0 hPa SSO 11.1 km/h 17.2 km/h 70.1% 0.0 mm
10:54 13 °C 7.6 °C 1024.0 hPa SSO 10.5 km/h 17.7 km/h 69.6% 0.0 mm
10:59 13.2 °C 7.6 °C 1024.0 hPa SSO 10 km/h 16.4 km/h 68.6% 0.0 mm
11:04 13.4 °C 7.6 °C 1024.0 hPa SO 10 km/h 16.7 km/h 68% 0.0 mm
11:09 13.6 °C 7.7 °C 1024.1 hPa SO 10 km/h 16.1 km/h 67.7% 0.0 mm
11:14 13.7 °C 7.7 °C 1024.1 hPa SO 9.3 km/h 18.5 km/h 67% 0.0 mm
11:19 13.8 °C 7.7 °C 1024.1 hPa SO 8.7 km/h 19.3 km/h 66.4% 0.0 mm
11:24 14 °C 7.8 °C 1024.1 hPa SSO 9.4 km/h 16.7 km/h 66% 0.0 mm
11:29 14.2 °C 7.7 °C 1024.1 hPa SO 10 km/h 18.3 km/h 65% 0.0 mm
11:34 14.3 °C 7.7 °C 1024.1 hPa SSO 10 km/h 19.3 km/h 64.9% 0.0 mm
11:39 14.4 °C 7.9 °C 1024.1 hPa SSO 10 km/h 16.1 km/h 65% 0.0 mm
11:44 14.5 °C 7.9 °C 1024.0 hPa SO 9.1 km/h 16.7 km/h 64.2% 0.0 mm
11:49 14.6 °C 7.9 °C 1024.0 hPa SO 8.4 km/h 16.7 km/h 64% 0.0 mm
11:54 14.8 °C 7.9 °C 1024.0 hPa SO 9 km/h 16.1 km/h 63.3% 0.0 mm
11:59 15 °C 7.9 °C 1023.8 hPa SSO 9.5 km/h 16.7 km/h 62.5% 0.0 mm
12:04 15 °C 7.7 °C 1023.8 hPa SO 9.5 km/h 16.1 km/h 62% 0.0 mm
12:09 15.1 °C 7.9 °C 1023.8 hPa SSO 9.5 km/h 16.1 km/h 62% 0.0 mm
12:14 15.3 °C 7.9 °C 1023.6 hPa SSO 9.1 km/h 14.8 km/h 61.3% 0.0 mm
12:19 15.4 °C 7.8 °C 1023.6 hPa SSO 8.7 km/h 14.8 km/h 60.8% 0.0 mm
12:24 15.6 °C 7.9 °C 1023.6 hPa SSO 8.5 km/h 14.8 km/h 60% 0.0 mm
12:29 15.7 °C 7.7 °C 1023.3 hPa SO 8.4 km/h 14.8 km/h 59.1% 0.0 mm
12:34 15.7 °C 7.9 °C 1023.3 hPa SSO 8.5 km/h 14.5 km/h 59.6% 0.0 mm
12:39 15.8 °C 7.9 °C 1023.3 hPa SO 8.7 km/h 13 km/h 59.1% 0.0 mm
12:44 16.1 °C 7.8 °C 1023.0 hPa SSO 8.7 km/h 14.8 km/h 58.2% 0.0 mm
12:49 16.1 °C 7.9 °C 1023.0 hPa SSO 8.7 km/h 14.5 km/h 58% 0.0 mm
12:54 16.2 °C 7.9 °C 1023.0 hPa SSO 8.5 km/h 16.7 km/h 57.7% 0.0 mm
12:59 16.3 °C 7.8 °C 1022.8 hPa SSO 8.4 km/h 16.7 km/h 57% 0.0 mm
13:04 16.3 °C 7.8 °C 1022.8 hPa SSO 9.5 km/h 16.1 km/h 57% 0.0 mm
13:09 16.3 °C 7.8 °C 1022.8 hPa Sur 10.3 km/h 13 km/h 57.2% 0.0 mm
13:14 16.5 °C 7.8 °C 1022.5 hPa SSO 8.8 km/h 16.1 km/h 56.6% 0.0 mm
13:19 16.7 °C 7.8 °C 1022.5 hPa SSO 7.6 km/h 16.7 km/h 56% 0.0 mm
13:24 16.8 °C 7.9 °C 1022.5 hPa SSO 8 km/h 14.8 km/h 55.9% 0.0 mm
13:29 16.8 °C 7.8 °C 1022.3 hPa SSO 8.4 km/h 14.8 km/h 55.3% 0.0 mm
13:34 16.8 °C 7.9 °C 1022.3 hPa SSO 8.5 km/h 14.8 km/h 55.6% 0.0 mm
13:39 16.9 °C 8.2 °C 1022.3 hPa SSO 8.7 km/h 14.5 km/h 56.2% 0.0 mm
13:44 17.2 °C 8.1 °C 1022.1 hPa SSO 7.5 km/h 13 km/h 55.4% 0.0 mm
13:49 17.2 °C 8.1 °C 1022.1 hPa SSO 6.5 km/h 13 km/h 55.1% 0.0 mm
13:54 17.3 °C 8.1 °C 1022.1 hPa SO 7.1 km/h 13.7 km/h 55% 0.0 mm
13:59 17.4 °C 7.9 °C 1021.8 hPa SSO 7.6 km/h 17.2 km/h 53.8% 0.0 mm
14:04 17.6 °C 7.9 °C 1021.8 hPa SO 8.6 km/h 19.8 km/h 53% 0.0 mm
14:09 17.6 °C 7.9 °C 1021.8 hPa SSO 9.5 km/h 20.9 km/h 53% 0.0 mm
14:14 17.7 °C 7.4 °C 1021.5 hPa SO 10.8 km/h 20.4 km/h 51% 0.0 mm
14:19 17.9 °C 6.6 °C 1021.5 hPa SO 11.9 km/h 22.2 km/h 47.6% 0.0 mm
14:24 18.1 °C 6.4 °C 1021.5 hPa SO 11.9 km/h 22.5 km/h 46.6% 0.0 mm
14:29 18.2 °C 6.5 °C 1021.2 hPa OSO 11.9 km/h 20.4 km/h 46.3% 0.0 mm
14:34 18.3 °C 6.2 °C 1021.2 hPa OSO 12.1 km/h 33.5 km/h 45% 0.0 mm
14:39 18.4 °C 5.8 °C 1021.2 hPa OSO 12.2 km/h 33.8 km/h 43.6% 0.0 mm
14:44 18.6 °C 5.9 °C 1021.0 hPa OSO 14.6 km/h 32.2 km/h 43.5% 0.0 mm
14:49 18.7 °C 5.8 °C 1021.0 hPa OSO 16.4 km/h 24.1 km/h 43% 0.0 mm
14:54 18.7 °C 5.7 °C 1021.0 hPa Oeste 14.9 km/h 22.2 km/h 42.5% 0.0 mm
14:59 18.8 °C 6.2 °C 1020.9 hPa OSO 13.7 km/h 22.5 km/h 43.8% 0.0 mm
15:04 18.8 °C 6.1 °C 1020.9 hPa OSO 11.7 km/h 19 km/h 43.3% 0.0 mm
15:09 18.9 °C 6.3 °C 1020.9 hPa OSO 10.3 km/h 22.2 km/h 43.9% 0.0 mm
15:14 18.8 °C 6.5 °C 1020.7 hPa OSO 11.2 km/h 22.5 km/h 44.7% 0.0 mm
15:19 18.8 °C 6.7 °C 1020.7 hPa OSO 11.9 km/h 16.1 km/h 45% 0.0 mm
15:24 18.9 °C 7 °C 1020.7 hPa SSO 10.8 km/h 17.2 km/h 45.8% 0.0 mm
15:29 19 °C 6.6 °C 1020.7 hPa SO 10 km/h 17.7 km/h 44.6% 0.0 mm
15:34 19.1 °C 6.9 °C 1020.7 hPa SO 10 km/h 16.7 km/h 45% 0.0 mm
15:39 19.2 °C 6.7 °C 1020.7 hPa SO 10 km/h 22.5 km/h 44.3% 0.0 mm
15:44 19.2 °C 6.2 °C 1020.7 hPa SO 10.6 km/h 23.3 km/h 42.6% 0.0 mm
15:49 19.3 °C 5.9 °C 1020.7 hPa OSO 11.1 km/h 24.1 km/h 41.5% 0.0 mm
15:54 19.3 °C 6 °C 1020.7 hPa SO 12.2 km/h 20.9 km/h 41.6% 0.0 mm
15:59 19.4 °C 5.9 °C 1020.6 hPa SO 13 km/h 20.9 km/h 41.3% 0.0 mm
16:04 19.5 °C 5.9 °C 1020.6 hPa SO 11 km/h 20.4 km/h 41.1% 0.0 mm
16:09 19.4 °C 5.8 °C 1020.7 hPa SO 9.5 km/h 20.9 km/h 41% 0.0 mm
16:14 19.4 °C 5.8 °C 1020.7 hPa SSO 10.9 km/h 16.7 km/h 41.2% 0.0 mm
16:19 19.5 °C 6.2 °C 1020.7 hPa SO 11.9 km/h 16.1 km/h 42% 0.0 mm
16:24 19.6 °C 6.3 °C 1020.7 hPa SO 9.5 km/h 14.8 km/h 42% 0.0 mm
16:29 19.7 °C 6.4 °C 1020.7 hPa SSO 7.6 km/h 14.5 km/h 41.9% 0.0 mm
16:34 19.6 °C 6.3 °C 1020.7 hPa SSO 7.2 km/h 14.8 km/h 42% 0.0 mm
16:39 19.6 °C 6.4 °C 1020.8 hPa SSO 6.9 km/h 14.5 km/h 42.1% 0.0 mm
16:44 19.6 °C 6.3 °C 1020.8 hPa SSO 6.9 km/h 11.9 km/h 42% 0.0 mm
16:49 19.6 °C 6.3 °C 1020.8 hPa SSO 6.9 km/h 12.2 km/h 42% 0.0 mm
16:54 19.6 °C 6.3 °C 1020.8 hPa Sur 6.7 km/h 13 km/h 42% 0.0 mm
16:59 19.5 °C 6.2 °C 1020.7 hPa Sur 6.5 km/h 13 km/h 41.8% 0.0 mm
17:04 19.5 °C 6.2 °C 1020.7 hPa Sur 6.7 km/h 12.9 km/h 42.1% 0.0 mm
17:09 19.4 °C 6.5 °C 1020.7 hPa Sur 6.9 km/h 11.9 km/h 42.8% 0.0 mm
17:14 19.3 °C 6.9 °C 1020.6 hPa Sur 6.9 km/h 11.3 km/h 44.4% 0.0 mm
17:19 19.2 °C 7.2 °C 1020.6 hPa Sur 6.9 km/h 11.9 km/h 45.7% 0.0 mm
17:24 18.9 °C 7.5 °C 1020.6 hPa Sur 7.3 km/h 11.3 km/h 47.2% 0.0 mm
17:29 18.8 °C 7.7 °C 1020.6 hPa Sur 7.6 km/h 11.3 km/h 48.4% 0.0 mm
17:34 18.6 °C 7.8 °C 1020.6 hPa Sur 7 km/h 9.7 km/h 49.4% 0.0 mm
17:39 18.4 °C 7.9 °C 1020.8 hPa SSO 6.5 km/h 9.7 km/h 50.4% 0.0 mm
17:44 18.3 °C 8 °C 1020.8 hPa Sur 5.6 km/h 8 km/h 51.1% 0.0 mm
17:49 18.1 °C 8.1 °C 1020.8 hPa Sur 5 km/h 8 km/h 52% 0.0 mm
17:54 17.9 °C 8 °C 1020.8 hPa SSE 4.8 km/h 8 km/h 52.5% 0.0 mm
17:59 17.7 °C 8.1 °C 1020.7 hPa SE 4.7 km/h 8 km/h 53.5% 0.0 mm
18:04 17.4 °C 8.4 °C 1020.7 hPa SE 4.7 km/h 8 km/h 55.4% 0.0 mm
18:09 17.1 °C 8.4 °C 1020.8 hPa ESE 4.7 km/h 8.4 km/h 56.6% 0.0 mm
18:14 16.9 °C 8.3 °C 1020.8 hPa SE 3.7 km/h 8 km/h 57.1% 0.0 mm
18:19 16.7 °C 8.4 °C 1020.8 hPa SE 2.9 km/h 8.4 km/h 58% 0.0 mm
18:24 16.5 °C 8.4 °C 1021.0 hPa SE 3.9 km/h 9.5 km/h 58.9% 0.0 mm
18:29 16.3 °C 8.4 °C 1021.0 hPa SSE 4.7 km/h 9.7 km/h 59.1% 0.0 mm
18:34 16.2 °C 8.5 °C 1021.0 hPa Oeste 4.8 km/h 8 km/h 60% 0.0 mm
18:39 16.1 °C 8.4 °C 1021.2 hPa SO 5 km/h 10.3 km/h 60.2% 0.0 mm
18:44 16.1 °C 8.8 °C 1021.2 hPa SO 5.4 km/h 16.7 km/h 62% 0.0 mm
18:49 16.2 °C 9 °C 1021.2 hPa SSO 5.8 km/h 16.1 km/h 62.3% 0.0 mm
18:54 16.2 °C 9.2 °C 1021.3 hPa SSO 6.4 km/h 11.3 km/h 63.5% 0.0 mm
18:59 16 °C 9.6 °C 1021.3 hPa SSO 6.9 km/h 14.8 km/h 65.9% 0.0 mm
19:04 15.8 °C 9.9 °C 1021.3 hPa SSO 7.3 km/h 14.5 km/h 67.8% 0.0 mm
19:09 15.6 °C 10 °C 1021.4 hPa SSO 7.6 km/h 16.7 km/h 69.5% 0.0 mm
19:14 15.4 °C 10 °C 1021.4 hPa SO 8.2 km/h 16.1 km/h 70.5% 0.0 mm
19:19 15.3 °C 10 °C 1021.4 hPa SO 8.7 km/h 14.5 km/h 71.1% 0.0 mm
19:24 15.1 °C 10.1 °C 1021.8 hPa SO 7.5 km/h 12.9 km/h 72% 0.0 mm
19:29 15 °C 10.1 °C 1021.8 hPa SSO 6.5 km/h 9.7 km/h 72.2% 0.0 mm
19:34 14.9 °C 10.1 °C 1021.8 hPa SSO 5.4 km/h 9.7 km/h 73% 0.0 mm
19:39 14.8 °C 10 °C 1021.9 hPa SSO 4.7 km/h 9.7 km/h 73% 0.0 mm
19:44 14.8 °C 10.1 °C 1021.9 hPa Sur 4.7 km/h 10 km/h 73.4% 0.0 mm
19:49 14.7 °C 10.1 °C 1021.9 hPa Sur 4.7 km/h 10 km/h 74% 0.0 mm
19:54 14.6 °C 10 °C 1021.9 hPa SE 5.6 km/h 11.1 km/h 74% 0.0 mm
19:59 14.3 °C 10 °C 1021.9 hPa SE 6.5 km/h 13 km/h 75.1% 0.0 mm
20:04 14.1 °C 9.9 °C 1021.9 hPa SE 7.1 km/h 12.9 km/h 76% 0.0 mm
20:09 13.9 °C 9.9 °C 1022.0 hPa SSE 7.6 km/h 13 km/h 77% 0.0 mm
20:14 13.7 °C 9.9 °C 1022.0 hPa Sur 8 km/h 13 km/h 77.8% 0.0 mm
20:19 13.7 °C 10 °C 1022.0 hPa SSO 8.4 km/h 13 km/h 78.4% 0.0 mm
20:24 13.8 °C 10.1 °C 1022.0 hPa Sur 7.9 km/h 13 km/h 78.3% 0.0 mm
20:29 13.8 °C 10.1 °C 1022.0 hPa Sur 7.6 km/h 11.3 km/h 78% 0.0 mm
20:34 13.8 °C 10.1 °C 1022.0 hPa SSE 7.2 km/h 10 km/h 78% 0.0 mm
20:39 13.8 °C 10.1 °C 1022.0 hPa Sur 6.9 km/h 14.8 km/h 78% 0.0 mm
20:44 13.7 °C 10 °C 1022.0 hPa Sur 7.7 km/h 14.5 km/h 78% 0.0 mm
20:49 13.7 °C 9.9 °C 1022.0 hPa SSE 8.4 km/h 12.9 km/h 78% 0.0 mm
20:54 13.7 °C 9.9 °C 1022.1 hPa SSE 7.6 km/h 13.7 km/h 78% 0.0 mm
20:59 13.6 °C 9.8 °C 1022.1 hPa SSE 6.9 km/h 14.5 km/h 78% 0.0 mm
21:04 13.6 °C 9.9 °C 1022.1 hPa Sur 6.3 km/h 11.3 km/h 78.5% 0.0 mm
21:09 13.4 °C 9.9 °C 1022.2 hPa SSE 5.8 km/h 11.1 km/h 79% 0.0 mm
21:14 13.4 °C 9.8 °C 1022.2 hPa Sur 6.4 km/h 11.3 km/h 79% 0.0 mm
21:19 13.4 °C 9.8 °C 1022.2 hPa Sur 6.9 km/h 11.3 km/h 79% 0.0 mm
21:24 13.4 °C 9.7 °C 1022.2 hPa SSO 6.9 km/h 13 km/h 78.2% 0.0 mm
21:29 13.6 °C 9.7 °C 1022.1 hPa SSO 6.9 km/h 12.9 km/h 77% 0.0 mm
21:34 13.7 °C 9.5 °C 1022.1 hPa Sur 6.9 km/h 11.3 km/h 76% 0.0 mm
21:39 13.7 °C 9.6 °C 1022.1 hPa Sur 6.9 km/h 11.1 km/h 76% 0.0 mm
21:44 13.7 °C 9.6 °C 1022.1 hPa Sur 6.7 km/h 11.3 km/h 76% 0.0 mm
21:49 13.7 °C 9.5 °C 1022.1 hPa SSO 6.5 km/h 9.7 km/h 75.7% 0.0 mm
21:54 13.8 °C 9.4 °C 1022.1 hPa SO 6.5 km/h 9.7 km/h 75% 0.0 mm
21:59 13.8 °C 9.3 °C 1022.1 hPa SO 6.5 km/h 9.5 km/h 74.3% 0.0 mm
22:04 13.9 °C 9.3 °C 1022.1 hPa SO 6.1 km/h 10 km/h 74% 0.0 mm
22:09 13.9 °C 9.3 °C 1022.1 hPa SSO 5.8 km/h 9.7 km/h 74% 0.0 mm
22:14 13.8 °C 9.3 °C 1021.9 hPa ESE 5.2 km/h 9.5 km/h 74.4% 0.0 mm
22:19 13.3 °C 9.2 °C 1021.9 hPa ESE 4.7 km/h 11.9 km/h 76.1% 0.0 mm
22:24 12.8 °C 9.2 °C 1022.1 hPa ESE 5.6 km/h 11.3 km/h 78.6% 0.0 mm
22:29 12.6 °C 9.2 °C 1022.1 hPa Este 6.5 km/h 8 km/h 79.6% 0.0 mm
22:34 12.6 °C 9.2 °C 1022.1 hPa ESE 4.5 km/h 7.4 km/h 79.8% 0.0 mm
22:39 12.7 °C 9.1 °C 1022.1 hPa Sur 2.9 km/h 8 km/h 79% 0.0 mm
22:44 12.7 °C 9.1 °C 1022.1 hPa SSO 3.4 km/h 8 km/h 78.7% 0.0 mm
22:49 12.9 °C 9.1 °C 1022.1 hPa SSO 3.9 km/h 8 km/h 77.4% 0.0 mm
22:54 13.2 °C 9 °C 1022.2 hPa SSO 4.3 km/h 8 km/h 76.1% 0.0 mm
22:59 13.2 °C 9.1 °C 1022.2 hPa SSO 4.7 km/h 7.4 km/h 75.8% 0.0 mm
23:04 13.3 °C 9 °C 1022.2 hPa Sur 3.8 km/h 9.3 km/h 75% 0.0 mm
23:09 13.4 °C 8.9 °C 1022.2 hPa SSE 3.2 km/h 11.1 km/h 74.3% 0.0 mm
23:14 13.5 °C 8.8 °C 1022.2 hPa SSE 5.6 km/h 13.7 km/h 73.4% 0.0 mm
23:19 13.6 °C 8.8 °C 1022.2 hPa Sur 7.6 km/h 14.5 km/h 72.8% 0.0 mm
23:24 13.7 °C 8.6 °C 1022.4 hPa SSE 6.9 km/h 11.1 km/h 71.5% 0.0 mm
23:29 13.8 °C 8.5 °C 1022.4 hPa SSO 6.5 km/h 11.3 km/h 70.5% 0.0 mm
23:34 14.1 °C 8.5 °C 1022.4 hPa Sur 5.5 km/h 9.7 km/h 69.1% 0.0 mm
23:39 14.3 °C 8.4 °C 1022.7 hPa SO 4.7 km/h 14 km/h 67.8% 0.0 mm
23:44 14.6 °C 8.5 °C 1022.7 hPa SO 5.9 km/h 20.4 km/h 66.5% 0.0 mm
23:49 15.1 °C 8.5 °C 1022.7 hPa SO 6.9 km/h 20.9 km/h 64.9% 0.0 mm
23:54 15.4 °C 8.5 °C 1022.7 hPa OSO 8.6 km/h 24.1 km/h 63.6% 0.0 mm
23:59 15.7 °C 8.5 °C 1022.7 hPa SO 10 km/h 24.1 km/h 62.4% 0.0 mm
Murcia-Puente Tocinos, Espa?a
Compliments of Weather Underground - 3 mb

La estación de MeteoMurcia.com, publica sus datos en los siguientes proyectos:

Weather Underground PWS IMURCIAP2 Meteoclimatic www.awekas.at

W3Counter
Web Analytics